createdAt,value
2022-12-01T00:01:26.803Z,38.70
2022-12-01T00:03:54.159Z,36.17
2022-12-01T00:06:21.429Z,38.30
2022-12-01T00:09:08.250Z,35.08
2022-12-01T00:11:35.761Z,40.38
2022-12-01T00:14:02.921Z,40.30
2022-12-01T00:16:29.953Z,36.25
2022-12-01T00:18:56.851Z,41.03
2022-12-01T00:21:24.745Z,43.30
2022-12-01T00:23:54.084Z,40.67
2022-12-01T00:26:21.766Z,40.63
2022-12-01T00:28:52.600Z,38.20
2022-12-01T00:31:19.314Z,41.03
2022-12-01T00:33:45.751Z,40.80
2022-12-01T00:36:12.329Z,37.05
2022-12-01T00:38:39.129Z,38.40
2022-12-01T00:41:05.768Z,38.22
2022-12-01T00:43:32.297Z,39.17
2022-12-01T00:45:59.050Z,35.33
2022-12-01T00:48:25.530Z,37.42
2022-12-01T00:50:53.391Z,36.53
2022-12-01T00:53:19.782Z,40.45
2022-12-01T00:55:46.739Z,40.60
2022-12-01T00:58:13.194Z,39.63
2022-12-01T01:00:39.798Z,39.35
2022-12-01T01:03:07.375Z,36.83
2022-12-01T01:05:39.124Z,37.05
2022-12-01T01:08:10.029Z,35.72
2022-12-01T01:10:44.241Z,39.72
2022-12-01T01:13:11.890Z,36.77
2022-12-01T01:15:38.823Z,44.22
2022-12-01T01:18:06.008Z,37.63
2022-12-01T01:20:33.671Z,40.83
2022-12-01T01:23:00.080Z,45.75
2022-12-01T01:25:26.795Z,41.92
2022-12-01T01:27:53.194Z,41.55
2022-12-01T01:30:20.393Z,43.63
2022-12-01T01:32:46.880Z,38.00
2022-12-01T01:35:13.404Z,42.83
2022-12-01T01:37:39.814Z,38.92
2022-12-01T01:40:08.875Z,42.75
2022-12-01T01:42:35.366Z,42.20
2022-12-01T01:45:01.932Z,43.92
2022-12-01T01:47:33.126Z,45.17
2022-12-01T01:50:06.452Z,45.55
2022-12-01T01:52:36.419Z,53.47
2022-12-01T01:55:03.445Z,51.88
2022-12-01T01:57:33.335Z,52.30
2022-12-01T02:00:16.948Z,59.58
2022-12-01T02:02:46.431Z,58.97
2022-12-01T02:05:19.054Z,47.47
2022-12-01T02:07:46.903Z,49.13
2022-12-01T02:10:14.874Z,55.55
2022-12-01T02:12:43.864Z,54.50
2022-12-01T02:15:29.897Z,53.92
2022-12-01T02:18:07.387Z,58.22
2022-12-01T02:20:52.759Z,56.35
2022-12-01T02:23:34.391Z,58.80
2022-12-01T02:26:43.690Z,58.00
2022-12-01T02:29:42.072Z,51.00
2022-12-01T02:32:08.495Z,52.20
2022-12-01T02:35:05.686Z,58.83
2022-12-01T02:37:59.500Z,61.10
2022-12-01T02:40:39.440Z,66.75
2022-12-01T02:43:08.465Z,61.55
2022-12-01T02:45:34.913Z,65.13
2022-12-01T02:48:03.106Z,61.70
2022-12-01T02:50:33.416Z,67.30
2022-12-01T02:53:03.169Z,62.38
2022-12-01T02:55:29.749Z,65.28
2022-12-01T02:57:56.221Z,69.63
2022-12-01T03:00:22.788Z,63.28
2022-12-01T03:03:19.905Z,66.82
2022-12-01T03:06:03.036Z,59.78
2022-12-01T03:08:45.993Z,63.20
2022-12-01T03:11:27.088Z,64.57
2022-12-01T03:13:56.374Z,64.15
2022-12-01T03:16:38.819Z,69.20
2022-12-01T03:19:12.931Z,59.58
2022-12-01T03:21:50.406Z,56.95
2022-12-01T03:24:21.914Z,57.03
2022-12-01T03:26:56.871Z,59.17
2022-12-01T03:29:41.330Z,55.50
2022-12-01T03:32:41.912Z,59.00
2022-12-01T03:35:14.486Z,65.47
2022-12-01T03:37:51.089Z,68.63
2022-12-01T03:40:22.497Z,63.85
2022-12-01T03:42:57.061Z,60.03
2022-12-01T03:45:52.508Z,66.85
2022-12-01T03:48:19.260Z,68.75
2022-12-01T03:50:51.126Z,59.90
2022-12-01T03:53:27.601Z,57.88
2022-12-01T03:56:02.738Z,59.83
2022-12-01T04:01:03.946Z,62.38
2022-12-01T04:03:30.704Z,69.07
2022-12-01T04:05:58.006Z,61.50
2022-12-01T04:08:24.518Z,63.20
2022-12-01T04:10:51.047Z,67.20
2022-12-01T04:13:23.068Z,61.40
2022-12-01T04:15:51.268Z,62.33
2022-12-01T04:18:19.191Z,66.15
2022-12-01T04:20:49.622Z,62.05
2022-12-01T04:23:36.072Z,58.83
2022-12-01T04:26:04.615Z,45.25
2022-12-01T04:28:31.506Z,44.20
2022-12-01T04:30:57.958Z,46.78
2022-12-01T04:33:24.392Z,51.70
2022-12-01T04:35:58.781Z,43.95
2022-12-01T04:38:30.514Z,42.80
2022-12-01T04:40:57.627Z,39.17
2022-12-01T04:43:24.128Z,46.88
2022-12-01T04:45:50.540Z,43.50
2022-12-01T04:48:16.903Z,44.83
2022-12-01T04:50:43.252Z,39.80
2022-12-01T04:53:09.680Z,40.22
2022-12-01T04:55:39.357Z,41.60
2022-12-01T04:58:06.380Z,43.38
2022-12-01T05:00:33.801Z,46.50
2022-12-01T05:03:00.999Z,48.80
2022-12-01T05:05:27.597Z,41.25
2022-12-01T05:07:54.123Z,36.28
2022-12-01T05:10:21.067Z,34.85
2022-12-01T05:12:47.706Z,36.03
2022-12-01T05:15:14.423Z,36.80
2022-12-01T05:17:41.116Z,37.00
2022-12-01T05:20:26.388Z,38.60
2022-12-01T05:23:10.762Z,42.00
2022-12-01T05:25:38.576Z,39.80
2022-12-01T05:28:06.490Z,38.20
2022-12-01T05:30:33.077Z,36.55
2022-12-01T05:32:59.616Z,42.85
2022-12-01T05:35:26.084Z,41.83
2022-12-01T05:37:52.452Z,36.50
2022-12-01T05:40:18.937Z,41.20
2022-12-01T05:42:45.354Z,40.40
2022-12-01T05:45:11.710Z,37.85
2022-12-01T05:47:38.107Z,41.50
2022-12-01T05:50:05.956Z,43.45
2022-12-01T05:52:36.444Z,38.55
2022-12-01T05:55:06.022Z,41.88
2022-12-01T05:57:33.424Z,46.92
2022-12-01T06:00:00.203Z,42.95
2022-12-01T06:02:29.247Z,48.45
2022-12-01T06:04:55.677Z,50.95
2022-12-01T06:07:23.463Z,44.88
2022-12-01T06:09:50.303Z,46.30
2022-12-01T06:12:16.916Z,44.33
2022-12-01T06:14:43.314Z,43.67
2022-12-01T06:17:10.018Z,44.58
2022-12-01T06:19:36.491Z,46.20
2022-12-01T06:22:03.552Z,41.85
2022-12-01T06:24:29.976Z,46.83
2022-12-01T06:26:56.414Z,46.15
2022-12-01T06:29:22.869Z,46.67
2022-12-01T06:31:49.327Z,42.63
2022-12-01T06:34:15.749Z,45.97
2022-12-01T06:36:42.147Z,44.38
2022-12-01T06:39:10.050Z,45.38
2022-12-01T06:41:37.693Z,45.75
2022-12-01T06:44:04.738Z,42.55
2022-12-01T06:46:31.302Z,46.80
2022-12-01T06:48:57.786Z,46.40
2022-12-01T06:51:24.184Z,45.25
2022-12-01T06:53:59.738Z,47.85
2022-12-01T06:56:28.582Z,45.28
2022-12-01T06:58:55.192Z,48.30
2022-12-01T07:01:22.185Z,45.33
2022-12-01T07:03:50.492Z,42.13
2022-12-01T07:06:18.093Z,46.58
2022-12-01T07:08:44.884Z,41.38
2022-12-01T07:11:14.336Z,42.65
2022-12-01T07:13:42.267Z,44.45
2022-12-01T07:16:09.675Z,45.40
2022-12-01T07:18:37.465Z,51.92
2022-12-01T07:21:07.121Z,45.08
2022-12-01T07:23:33.924Z,52.72
2022-12-01T07:26:00.906Z,45.83
2022-12-01T07:28:28.648Z,46.25
2022-12-01T07:31:04.884Z,49.00
2022-12-01T07:33:31.472Z,46.42
2022-12-01T07:35:58.322Z,43.42
2022-12-01T07:38:25.170Z,50.55
2022-12-01T07:40:51.612Z,46.97
2022-12-01T07:43:17.967Z,48.95
2022-12-01T07:45:44.456Z,44.47
2022-12-01T07:48:10.960Z,47.03
2022-12-01T07:50:37.383Z,48.58
2022-12-01T07:53:03.851Z,45.47
2022-12-01T07:55:30.248Z,42.83
2022-12-01T07:57:59.612Z,50.97
2022-12-01T08:00:26.151Z,53.72
2022-12-01T08:02:52.685Z,52.45
2022-12-01T08:05:19.169Z,52.42
2022-12-01T08:07:45.648Z,53.65
2022-12-01T08:10:12.333Z,56.65
2022-12-01T08:12:38.738Z,54.83
2022-12-01T08:15:05.509Z,57.85
2022-12-01T08:17:31.881Z,55.58
2022-12-01T08:19:58.268Z,55.40
2022-12-01T08:22:24.674Z,54.10
2022-12-01T08:24:51.150Z,57.80
2022-12-01T08:27:17.524Z,57.65
2022-12-01T08:29:44.025Z,53.22
2022-12-01T08:32:10.380Z,55.88
2022-12-01T08:34:41.339Z,56.83
2022-12-01T08:37:07.715Z,56.45
2022-12-01T08:39:34.185Z,58.55
2022-12-01T08:42:00.796Z,61.30
2022-12-01T08:44:27.341Z,59.03
2022-12-01T08:46:54.502Z,60.63
2022-12-01T08:49:22.408Z,67.00
2022-12-01T08:51:49.104Z,62.00
2022-12-01T08:54:15.619Z,60.58
2022-12-01T08:56:43.829Z,58.95
2022-12-01T08:59:10.392Z,51.88
2022-12-01T09:01:52.011Z,58.47
2022-12-01T09:04:26.265Z,52.85
2022-12-01T09:06:55.184Z,54.97
2022-12-01T09:09:24.349Z,56.28
2022-12-01T09:11:52.432Z,55.45
2022-12-01T09:14:19.819Z,51.63
2022-12-01T09:16:49.770Z,52.88
2022-12-01T09:19:24.282Z,50.75
2022-12-01T09:21:51.616Z,50.28
2022-12-01T09:24:18.073Z,55.15
2022-12-01T09:26:44.470Z,49.40
2022-12-01T09:29:13.644Z,47.92
2022-12-01T09:31:41.078Z,50.13
2022-12-01T09:34:11.789Z,78.25
2022-12-01T09:36:38.479Z,47.78
2022-12-01T09:39:06.964Z,47.15
2022-12-01T09:41:41.797Z,51.28
2022-12-01T09:44:15.048Z,55.13
2022-12-01T09:46:47.094Z,52.42
2022-12-01T09:49:22.966Z,54.85
2022-12-01T09:51:51.176Z,48.20
2022-12-01T09:54:17.644Z,46.75
2022-12-01T09:56:52.476Z,43.88
2022-12-01T09:59:35.533Z,51.65
2022-12-01T10:02:06.581Z,45.63
2022-12-01T10:04:41.015Z,51.33
2022-12-01T10:07:20.899Z,56.55
2022-12-01T10:10:01.357Z,50.33
2022-12-01T10:12:33.076Z,44.80
2022-12-01T10:15:15.309Z,46.88
2022-12-01T10:18:26.940Z,41.92
2022-12-01T10:21:18.920Z,40.80
2022-12-01T10:24:23.072Z,40.88
2022-12-01T10:27:22.372Z,40.78
2022-12-01T10:29:51.733Z,42.17
2022-12-01T10:32:32.651Z,43.28
2022-12-01T10:34:59.153Z,38.75
2022-12-01T10:37:30.337Z,41.05
2022-12-01T10:39:58.512Z,45.53
2022-12-01T10:42:45.943Z,39.63
2022-12-01T10:45:28.739Z,44.42
2022-12-01T10:48:15.245Z,42.10
2022-12-01T10:50:50.125Z,39.72
2022-12-01T10:53:22.465Z,40.97
2022-12-01T10:56:02.565Z,40.13
2022-12-01T10:58:30.867Z,37.72
2022-12-01T11:01:01.260Z,38.15
2022-12-01T11:03:31.643Z,41.95
2022-12-01T11:06:00.597Z,39.38
2022-12-01T11:08:50.678Z,44.72
2022-12-01T11:11:36.207Z,39.92
2022-12-01T11:16:44.310Z,36.45
2022-12-01T11:19:29.052Z,34.65
2022-12-01T11:21:57.929Z,44.80
2022-12-01T11:24:42.300Z,34.90
2022-12-01T11:27:18.693Z,39.15
2022-12-01T11:29:49.196Z,38.70
2022-12-01T11:32:51.334Z,35.38
2022-12-01T11:35:24.119Z,39.80
2022-12-01T11:38:28.175Z,37.17
2022-12-01T11:40:56.127Z,35.35
2022-12-01T11:43:28.471Z,38.53
2022-12-01T11:45:57.160Z,38.20
2022-12-01T11:48:27.941Z,41.35
2022-12-01T11:51:10.253Z,37.33
2022-12-01T11:53:40.503Z,35.17
2022-12-01T11:56:23.626Z,41.08
2022-12-01T11:58:59.314Z,44.58
2022-12-01T12:01:47.299Z,38.13
2022-12-01T12:04:25.552Z,42.40
2022-12-01T12:07:29.543Z,34.03
2022-12-01T12:10:14.756Z,39.03
2022-12-01T12:13:07.007Z,35.95
2022-12-01T12:15:33.343Z,44.17
2022-12-01T12:18:37.525Z,38.83
2022-12-01T12:21:33.776Z,38.85
2022-12-01T12:24:06.633Z,36.88
2022-12-01T12:26:57.296Z,37.00
2022-12-01T12:29:27.336Z,44.78
2022-12-01T12:32:15.044Z,42.17
2022-12-01T12:35:09.892Z,45.47
2022-12-01T12:38:01.655Z,44.08
2022-12-01T12:40:47.195Z,47.47
2022-12-01T12:46:01.305Z,53.67
2022-12-01T12:48:57.255Z,46.10
2022-12-01T12:51:48.757Z,46.08
2022-12-01T12:54:43.057Z,45.90
2022-12-01T12:57:20.745Z,45.35
2022-12-01T13:00:01.265Z,52.70
2022-12-01T13:02:49.191Z,51.42
2022-12-01T13:05:51.256Z,52.88
2022-12-01T13:08:25.528Z,59.22
2022-12-01T13:11:02.970Z,51.65
2022-12-01T13:13:35.231Z,60.03
2022-12-01T13:16:04.575Z,52.45
2022-12-01T13:19:03.214Z,50.63
2022-12-01T13:21:36.371Z,59.75
2022-12-01T13:24:04.777Z,51.72
2022-12-01T13:26:34.511Z,55.72
2022-12-01T13:29:04.526Z,50.33
2022-12-01T13:31:43.613Z,51.40
2022-12-01T13:34:20.818Z,51.17
2022-12-01T13:36:52.789Z,55.75
2022-12-01T13:39:27.959Z,54.15
2022-12-01T13:44:40.313Z,53.22
2022-12-01T13:47:09.708Z,54.28
2022-12-01T13:49:42.515Z,60.70
2022-12-01T13:52:20.985Z,56.88
2022-12-01T13:55:09.567Z,64.15
2022-12-01T13:57:40.380Z,57.65
2022-12-01T14:00:34.768Z,60.85
2022-12-01T14:03:16.746Z,59.17
2022-12-01T14:05:57.111Z,64.15
2022-12-01T14:08:26.585Z,61.55
2022-12-01T14:11:21.357Z,57.47
2022-12-01T14:14:09.188Z,61.53
2022-12-01T14:16:46.337Z,63.38
2022-12-01T14:19:46.222Z,63.30
2022-12-01T14:22:33.441Z,65.88
2022-12-01T14:25:00.991Z,65.70
2022-12-01T14:27:42.371Z,61.92
2022-12-01T14:30:45.593Z,67.53
2022-12-01T14:33:50.970Z,65.70
2022-12-01T14:36:23.457Z,70.30
2022-12-01T14:38:52.496Z,67.65
2022-12-01T14:41:25.553Z,64.93
2022-12-01T14:44:03.548Z,68.90
2022-12-01T14:46:39.460Z,64.43
2022-12-01T14:49:09.667Z,66.13
2022-12-01T14:51:37.666Z,71.47
2022-12-01T14:54:12.352Z,69.07
2022-12-01T14:56:40.828Z,72.82
2022-12-01T14:59:26.233Z,68.68
2022-12-01T15:02:04.238Z,68.60
2022-12-01T15:04:32.617Z,67.70
2022-12-01T15:06:59.055Z,65.95
2022-12-01T15:09:35.151Z,68.28
2022-12-01T15:12:07.166Z,70.97
2022-12-01T15:14:38.920Z,71.65
2022-12-01T15:17:08.681Z,67.95
2022-12-01T15:19:41.249Z,68.38
2022-12-01T15:22:17.818Z,71.05
2022-12-01T15:24:45.392Z,71.25
2022-12-01T15:27:26.056Z,68.10
2022-12-01T15:29:53.116Z,69.45
2022-12-01T15:32:22.514Z,74.68
2022-12-01T15:34:53.351Z,72.18
2022-12-01T15:37:22.493Z,67.20
2022-12-01T15:40:00.293Z,68.95
2022-12-01T15:42:34.748Z,69.35
2022-12-01T15:45:15.673Z,69.50
2022-12-01T15:47:43.398Z,72.13
2022-12-01T15:50:41.282Z,68.88
2022-12-01T15:53:32.798Z,69.45
2022-12-01T15:56:01.325Z,66.82
2022-12-01T15:58:31.262Z,70.60
2022-12-01T16:01:02.421Z,69.97
2022-12-01T16:03:29.730Z,69.57
2022-12-01T16:05:57.313Z,68.72
2022-12-01T16:08:27.136Z,71.50
2022-12-01T16:11:18.485Z,70.53
2022-12-01T16:13:47.664Z,62.08
2022-12-01T16:16:27.397Z,63.00
2022-12-01T16:19:00.180Z,67.35
2022-12-01T16:21:27.351Z,62.40
2022-12-01T16:24:05.622Z,61.33
2022-12-01T16:26:33.857Z,61.17
2022-12-01T16:29:00.461Z,65.53
2022-12-01T16:31:27.464Z,60.33
2022-12-01T16:34:13.982Z,64.20
2022-12-01T16:36:45.120Z,61.50
2022-12-01T16:39:15.645Z,59.10
2022-12-01T16:41:46.808Z,60.40
2022-12-01T16:44:32.149Z,59.92
2022-12-01T16:46:58.666Z,59.95
2022-12-01T16:49:25.132Z,63.40
2022-12-01T16:51:56.411Z,59.35
2022-12-01T16:54:23.839Z,55.55
2022-12-01T16:56:50.968Z,60.92
2022-12-01T16:59:18.040Z,58.63
2022-12-01T17:01:44.537Z,56.88
2022-12-01T17:04:11.011Z,69.05
2022-12-01T17:06:38.340Z,64.90
2022-12-01T17:09:05.139Z,58.35
2022-12-01T17:11:32.694Z,64.85
2022-12-01T17:13:59.133Z,60.45
2022-12-01T17:16:25.852Z,60.22
2022-12-01T17:18:52.368Z,58.67
2022-12-01T17:21:18.990Z,61.85
2022-12-01T17:23:45.492Z,67.25
2022-12-01T17:26:16.259Z,57.42
2022-12-01T17:28:42.739Z,63.42
2022-12-01T17:31:09.835Z,60.05
2022-12-01T17:33:37.158Z,56.17
2022-12-01T17:36:09.827Z,61.05
2022-12-01T17:38:38.062Z,60.70
2022-12-01T17:41:10.001Z,58.47
2022-12-01T17:43:38.504Z,61.38
2022-12-01T17:46:07.945Z,59.13
2022-12-01T17:48:39.407Z,58.28
2022-12-01T17:51:07.122Z,59.97
2022-12-01T17:53:33.651Z,63.10
2022-12-01T17:56:00.055Z,56.85
2022-12-01T17:58:26.830Z,58.75
2022-12-01T18:00:54.079Z,57.58
2022-12-01T18:03:21.049Z,59.95
2022-12-01T18:05:57.527Z,58.10
2022-12-01T18:08:25.806Z,61.85
2022-12-01T18:10:52.905Z,61.20
2022-12-01T18:13:21.359Z,60.80
2022-12-01T18:15:48.552Z,58.30
2022-12-01T18:18:14.966Z,61.22
2022-12-01T18:20:43.308Z,58.92
2022-12-01T18:23:10.774Z,61.85
2022-12-01T18:25:38.332Z,63.65
2022-12-01T18:28:06.139Z,58.88
2022-12-01T18:30:34.181Z,62.15
2022-12-01T18:33:01.382Z,60.65
2022-12-01T18:35:31.718Z,61.80
2022-12-01T18:37:58.731Z,64.25
2022-12-01T18:40:25.133Z,67.47
2022-12-01T18:42:51.564Z,69.88
2022-12-01T18:45:21.183Z,64.13
2022-12-01T18:47:48.114Z,66.15
2022-12-01T18:50:14.649Z,65.18
2022-12-01T18:52:41.138Z,65.18
2022-12-01T18:55:07.929Z,65.88
2022-12-01T18:57:34.418Z,66.20
2022-12-01T19:00:00.985Z,63.95
2022-12-01T19:02:27.484Z,64.93
2022-12-01T19:04:53.911Z,65.47
2022-12-01T19:07:22.896Z,70.63
2022-12-01T19:09:52.160Z,67.40
2022-12-01T19:12:18.936Z,64.10
2022-12-01T19:14:45.422Z,70.53
2022-12-01T19:17:11.752Z,67.75
2022-12-01T19:19:38.164Z,62.08
2022-12-01T19:22:04.710Z,65.25
2022-12-01T19:24:31.204Z,66.60
2022-12-01T19:26:57.637Z,63.88
2022-12-01T19:29:24.136Z,62.00
2022-12-01T19:31:50.608Z,60.28
2022-12-01T19:34:17.147Z,63.40
2022-12-01T19:36:43.613Z,63.17
2022-12-01T19:39:10.155Z,61.83
2022-12-01T19:41:37.104Z,64.72
2022-12-01T19:44:03.625Z,63.63
2022-12-01T19:46:30.013Z,65.43
2022-12-01T19:49:00.377Z,58.50
2022-12-01T19:51:34.865Z,65.55
2022-12-01T19:54:02.057Z,57.40
2022-12-01T19:56:28.706Z,60.95
2022-12-01T19:58:57.006Z,60.17
2022-12-01T20:01:23.506Z,59.70
2022-12-01T20:03:51.760Z,58.17
2022-12-01T20:06:26.513Z,56.03
2022-12-01T20:08:55.579Z,54.10
2022-12-01T20:11:22.816Z,47.42
2022-12-01T20:13:49.648Z,51.47
2022-12-01T20:16:18.866Z,40.90
2022-12-01T20:18:45.655Z,40.72
2022-12-01T20:21:18.896Z,43.17
2022-12-01T20:23:48.493Z,43.45
2022-12-01T20:26:16.808Z,41.97
2022-12-01T20:28:44.938Z,39.60
2022-12-01T20:31:14.795Z,36.47
2022-12-01T20:33:42.475Z,36.60
2022-12-01T20:36:09.560Z,36.63
2022-12-01T20:38:36.757Z,35.92
2022-12-01T20:41:04.517Z,35.63
2022-12-01T20:43:31.665Z,38.38
2022-12-01T20:45:58.606Z,40.97
2022-12-01T20:48:25.224Z,38.05
2022-12-01T20:50:51.660Z,41.03
2022-12-01T20:53:18.192Z,32.50
2022-12-01T20:55:45.008Z,43.00
2022-12-01T20:58:11.629Z,38.15
2022-12-01T21:00:40.346Z,37.78
2022-12-01T21:03:06.818Z,38.38
2022-12-01T21:05:33.271Z,34.08
2022-12-01T21:08:00.679Z,31.50
2022-12-01T21:10:27.827Z,34.80
2022-12-01T21:13:30.982Z,28.23
2022-12-01T21:16:04.144Z,33.72
2022-12-01T21:18:51.487Z,33.95
2022-12-01T21:24:19.811Z,34.85
2022-12-01T21:26:48.533Z,34.55
2022-12-01T21:29:26.655Z,32.53
2022-12-01T21:31:59.601Z,35.78
2022-12-01T21:34:28.592Z,31.25
2022-12-01T21:36:57.482Z,33.67
2022-12-01T21:39:25.017Z,34.15
2022-12-01T21:41:56.952Z,33.35
2022-12-01T21:44:36.001Z,34.55
2022-12-01T21:47:21.071Z,35.72
2022-12-01T21:49:51.414Z,36.88
2022-12-01T21:52:42.852Z,37.80
2022-12-01T21:55:33.237Z,35.42
2022-12-01T21:57:59.644Z,37.83
2022-12-01T22:00:28.902Z,36.00
2022-12-01T22:03:09.586Z,34.03
2022-12-01T22:05:40.413Z,34.15
2022-12-01T22:08:12.504Z,34.83
2022-12-01T22:11:13.097Z,38.25
2022-12-01T22:13:48.669Z,36.78
2022-12-01T22:16:43.266Z,37.38
2022-12-01T22:19:15.805Z,37.08
2022-12-01T22:21:49.968Z,38.42
2022-12-01T22:24:32.413Z,33.85
2022-12-01T22:27:32.152Z,35.20
2022-12-01T22:30:07.559Z,38.40
2022-12-01T22:32:44.080Z,40.88
2022-12-01T22:35:24.189Z,41.15
2022-12-01T22:37:59.153Z,36.45
2022-12-01T22:40:31.913Z,38.88
2022-12-01T22:43:13.930Z,40.30
2022-12-01T22:45:40.675Z,37.90
2022-12-01T22:48:34.899Z,39.03
2022-12-01T22:51:27.273Z,40.53
2022-12-01T22:54:00.271Z,41.97
2022-12-01T22:56:44.801Z,39.85
2022-12-01T22:59:32.149Z,35.38
2022-12-01T23:02:01.808Z,38.45
2022-12-01T23:04:34.051Z,39.75
2022-12-01T23:07:12.763Z,43.10
2022-12-01T23:09:44.152Z,46.35
2022-12-01T23:12:25.910Z,45.03
2022-12-01T23:14:55.289Z,40.17
2022-12-01T23:17:30.722Z,40.85
2022-12-01T23:20:18.635Z,45.70
2022-12-01T23:22:45.610Z,42.97
2022-12-01T23:25:17.358Z,41.78
2022-12-01T23:27:45.837Z,47.40
2022-12-01T23:30:13.715Z,45.22
2022-12-01T23:32:40.572Z,46.75
2022-12-01T23:35:13.752Z,45.38
2022-12-01T23:37:42.400Z,48.38
2022-12-01T23:40:19.411Z,47.80
2022-12-01T23:42:45.903Z,49.97
2022-12-01T23:45:20.797Z,44.97
2022-12-01T23:47:47.587Z,45.35
2022-12-01T23:50:21.475Z,46.75
2022-12-01T23:52:47.972Z,48.20
2022-12-01T23:55:25.924Z,49.33
2022-12-01T23:57:52.547Z,45.38
